EDLW 192350Z AUTO 27004KT 230V330 9999 // SCT012/// SCT015/// OVC023/// 16/14 Q1021 EDLW 192320Z AUTO 27005KT 230V320 9999 // BKN012/// BKN016/// OVC019/// 16/14 Q1021 EDLW 192250Z AUTO 27004KT 230V340 9999 // BKN012/// OVC016/// 16/15 Q1021 EDLW 192220Z AUTO 26005KT 230V320 9999 // BKN010/// BKN012/// OVC015/// 17/15 Q1021 EDLW 192150Z AUTO 22007KT 9999 // BKN020/// BKN026/// BKN031/// 17/16 Q1021 EDLW 192120Z AUTO 19008KT 9999 // BKN021/// BKN035/// 17/16 Q1020 EDLW 192050Z AUTO 18006KT 9999 // SCT027/// BKN032/// 17/16 Q1020 EDLW 192020Z 19007KT CAVOK 17/15 Q1020 EDLW 191950Z 20007KT CAVOK 17/15 Q1020 EDLW 191920Z 22008KT CAVOK 18/16 Q1020 EDLW 191850Z 21008KT CAVOK 18/16 Q1020 EDLW 191820Z 20007KT CAVOK 19/16 Q1019 EDLW 191750Z 22007KT CAVOK 19/17 Q1019 EDLW 191720Z 19004KT 140V250 CAVOK 18/16 Q1019 EDLW 191650Z 15007KT CAVOK 18/16 Q1019 EDLW 191620Z 15005KT 100V200 9999 VCSH FEW045 17/16 Q1019 EDLW 191550Z VRB02KT 9999 -SHRA FEW014CB 18/17 Q1018 EDLW 191520Z VRB02KT 9999 FEW013 17/16 Q1019 RETS EDLW 191450Z 22011KT 170V260 9999 -RA VCTS FEW012 SCT015CB 18/17 Q1019 RERA EDLW 191420Z 26014KT 230V300 9999 4000W TSRA BKN052CB 20/14 Q1019 EDLW 191350Z 23007KT 9999 SHRA SCT075CB 25/16 Q1016 EDLW 191320Z 18010KT 140V210 9999 FEW044CB 27/17 Q1015 EDLW 191250Z 16010KT 130V210 9999 -RA FEW044 26/15 Q1016 EDLW 191220Z 16007KT 100V210 CAVOK 28/15 Q1016 EDLW 191150Z 14008KT 110V180 CAVOK 28/15 Q1016 EDLW 191120Z 15009KT CAVOK 27/15 Q1016 EDLW 191050Z 13009KT CAVOK 27/14 Q1017 EDLW 191020Z 14008KT 110V170 CAVOK 25/14 Q1017 EDLW 190950Z 16006KT 100V200 CAVOK 25/14 Q1018 EDLW 190920Z 15005KT 110V180 CAVOK 24/14 Q1018 EDLW 190850Z VRB02KT CAVOK 25/14 Q1018 EDLW 190820Z 27004KT 220V330 CAVOK 24/14 Q1018 EDLW 190750Z 25005KT 220V300 CAVOK 23/14 Q1019 EDLW 190720Z 26006KT 200V340 CAVOK 23/15 Q1019 EDLW 190650Z 22007KT 180V280 CAVOK 22/14 Q1018 EDLW 190620Z 15006KT CAVOK 21/12 Q1018 EDLW 190550Z 14007KT CAVOK 22/12 Q1018 EDLW 190520Z 16009KT CAVOK 21/12 Q1018 EDLW 190450Z 16008KT CAVOK 20/12 Q1018 EDLW 190420Z 17008KT CAVOK 20/12 Q1018 EDLW 190350Z 17009KT CAVOK 20/12 Q1018 EDLW 190320Z 15007KT 120V180 CAVOK 20/12 Q1018 EDLW 190250Z AUTO 15008KT 9999 // NCD 21/12 Q1018 EDLW 190220Z AUTO 15007KT 9999 // NCD 21/12 Q1018 EDLW 190150Z AUTO 15008KT 9999 // NCD 21/12 Q1018 EDLW 190120Z AUTO 15008KT 9999 // NCD 21/12 Q1018 EDLW 190050Z AUTO 15008KT 9999 // NCD 21/12 Q1018 EDLW 190020Z AUTO 15006KT 9999 // NCD 21/12 Q1018 EDLW 182350Z AUTO 14004KT 9999 // NCD 20/13 Q1019 EDLW 182320Z AUTO 00000KT 9999 // NCD 20/13 Q1019 EDLW 182250Z AUTO VRB02KT 9999 // NCD 21/13 Q1019 EDLW 182220Z AUTO 15003KT 9999 // NCD 21/13 Q1019 EDLW 182150Z AUTO 13005KT 9999 // NCD 21/13 Q1019 EDLW 182120Z AUTO 13004KT 9999 // NCD 22/12 Q1019 EDLW 182050Z 14004KT CAVOK 22/12 Q1019 EDLW 182020Z 14004KT CAVOK 23/12 Q1019 EDLW 181950Z 16005KT CAVOK 23/13 Q1019 EDLW 181920Z 15005KT CAVOK 24/13 Q1019 EDLW 181850Z 13003KT CAVOK 25/13 Q1019 EDLW 181820Z 18004KT 120V200 CAVOK 24/15 Q1019 EDLW 181750Z 20005KT CAVOK 25/15 Q1019 EDLW 181720Z 21005KT 180V240 CAVOK 27/14 Q1019 EDLW 181650Z 22005KT 170V250 CAVOK 28/14 Q1019 EDLW 181620Z 20006KT CAVOK 28/12 Q1019 EDLW 181550Z 24006KT 210V270 CAVOK 28/15 Q1020 EDLW 181520Z 23008KT CAVOK 26/14 Q1020 EDLW 181450Z 24006KT CAVOK 27/14 Q1020 EDLW 181420Z VRB03KT CAVOK 28/14 Q1020 EDLW 181350Z 22006KT 190V300 CAVOK 28/14 Q1020 EDLW 181320Z VRB07KT CAVOK 28/14 Q1020 EDLW 181250Z 16007KT 080V220 CAVOK 28/15 Q1020 EDLW 181220Z 18006KT 120V240 CAVOK 28/14 Q1020

METAR Messwerte "DORTMUND/WICKEDE" EDLW

Zurück zur Übersicht

Ortsname
Ländercode / m ü. NN
Zeit Temperatur Taupunkt Rel.
Luftfeuchte
Luftdruck:
Altimeter
NN
Station
Wind in Beaufort
(Knoten)
Sichtweite
(Meter)
Wolken
(Meter über Grund)
Wettererscheinung
DORTMUND/WICKEDE
DE 122
Fr 20.05. 01:50161488 %1021
1021
1006
W 2 (4)
SW - NNW
>= 10000Bedeckt (700)
Wolkig (460)
Wolkig (370)
 
DORTMUND/WICKEDE
DE 122
Fr 20.05. 01:20161488 %1021
1021
1006
W 2 (5)
SW - NW
>= 10000Bedeckt (580)
Stark bewölkt (490)
Stark bewölkt (370)
 
DORTMUND/WICKEDE
DE 122
Fr 20.05. 00:50161594 %1021
1021
1006
W 2 (4)
SW - NNW
>= 10000Bedeckt (490)
Stark bewölkt (370)
 
DORTMUND/WICKEDE
DE 122
Fr 20.05. 00:20171588 %1021
1021
1006
W 2 (5)
SW - NW
>= 10000Bedeckt (460)
Stark bewölkt (370)
Stark bewölkt (300)
 
DORTMUND/WICKEDE
DE 122
Do 19.05. 23:50171694 %1021
1021
1006
SW 3 (7)>= 10000Stark bewölkt (940)
Stark bewölkt (790)
Stark bewölkt (610)
 
DORTMUND/WICKEDE
DE 122
Do 19.05. 23:20171694 %1020
1020
1005
S 3 (8)>= 10000Stark bewölkt (1100)
Stark bewölkt (640)
 
DORTMUND/WICKEDE
DE 122
Do 19.05. 22:50171694 %1020
1020
1005
S 2 (6)>= 10000Stark bewölkt (980)
Wolkig (820)
 
DORTMUND/WICKEDE
DE 122
Do 19.05. 22:20171588 %1020
1020
1005
S 3 (7)>= 10000Nicht signifikant 
DORTMUND/WICKEDE
DE 122
Do 19.05. 21:50171588 %1020
1020
1005
SSW 3 (7)>= 10000Nicht signifikant 
DORTMUND/WICKEDE
DE 122
Do 19.05. 21:20181688 %1020
1020
1005
SW 3 (8)>= 10000Nicht signifikant 
DORTMUND/WICKEDE
DE 122
Do 19.05. 20:50181688 %1020
1020
1005
SSW 3 (8)>= 10000Nicht signifikant 
DORTMUND/WICKEDE
DE 122
Do 19.05. 20:20191683 %1019
1019
1004
SSW 3 (7)>= 10000Nicht signifikant 
DORTMUND/WICKEDE
DE 122
Do 19.05. 19:50191788 %1019
1019
1004
SW 3 (7)>= 10000Nicht signifikant 
DORTMUND/WICKEDE
DE 122
Do 19.05. 19:20181688 %1019
1019
1004
S 2 (4)
SO - WSW
>= 10000Nicht signifikant 
DORTMUND/WICKEDE
DE 122
Do 19.05. 18:50181688 %1019
1019
1004
SSO 3 (7)>= 10000Nicht signifikant 
DORTMUND/WICKEDE
DE 122
Do 19.05. 18:20171694 %1019
1019
1004
SSO 2 (5)
O - SSW
>= 10000Leicht bewölkt (1400) 
DORTMUND/WICKEDE
DE 122
Do 19.05. 17:50181794 %1018
1018
1003
Uml 1 (2)>= 10000Leicht bewölkt Cb (430)Regen-Schauer (schwach)
DORTMUND/WICKEDE
DE 122
Do 19.05. 17:20171694 %1019
1019
1004
Uml 1 (2)>= 10000Leicht bewölkt (400) 
DORTMUND/WICKEDE
DE 122
Do 19.05. 16:50181794 %1019
1019
1004
SW 4 (11)
S - W
>= 10000Wolkig Cb (460)
Leicht bewölkt (370)
Regen (schwach)
DORTMUND/WICKEDE
DE 122
Do 19.05. 16:20201468 %1019
1019
1004
W 4 (14)
SW - WNW
>= 10000Stark bewölkt Cb (1600)Gewitter mit Regen
DORTMUND/WICKEDE
DE 122
Do 19.05. 15:50251657 %1016
1016
1001
SW 3 (7)>= 10000Wolkig Cb (2300)Regen-Schauer
DORTMUND/WICKEDE
DE 122
Do 19.05. 15:20271754 %1015
1014
1000
S 3 (10)
SO - SSW
>= 10000Leicht bewölkt Cb (1300) 
DORTMUND/WICKEDE
DE 122
Do 19.05. 14:50261551 %1016
1015
1001
SSO 3 (10)
SO - SSW
>= 10000Leicht bewölkt (1300)Regen (schwach)
DORTMUND/WICKEDE
DE 122
Do 19.05. 14:20281545 %1016
1015
1001
SSO 3 (7)
O - SSW
>= 10000Nicht signifikant 
DORTMUND/WICKEDE
DE 122
Do 19.05. 13:50281545 %1016
1015
1001
SO 3 (8)
OSO - S
>= 10000Nicht signifikant 
DORTMUND/WICKEDE
DE 122
Do 19.05. 13:20271548 %1016
1015
1001
SSO 3 (9)>= 10000Nicht signifikant 
DORTMUND/WICKEDE
DE 122
Do 19.05. 12:50271445 %1017
1016
1002
SO 3 (9)>= 10000Nicht signifikant 
DORTMUND/WICKEDE
DE 122
Do 19.05. 12:20251450 %1017
1017
1002
SO 3 (8)
OSO - S
>= 10000Nicht signifikant 
DORTMUND/WICKEDE
DE 122
Do 19.05. 11:50251450 %1018
1018
1003
SSO 2 (6)
O - SSW
>= 10000Nicht signifikant 
DORTMUND/WICKEDE
DE 122
Do 19.05. 11:20241454 %1018
1018
1003
SSO 2 (5)
OSO - S
>= 10000Nicht signifikant 
DORTMUND/WICKEDE
DE 122
Do 19.05. 10:50251450 %1018
1018
1003
Uml 1 (2)>= 10000Nicht signifikant 
DORTMUND/WICKEDE
DE 122
Do 19.05. 10:20241454 %1018
1018
1003
W 2 (4)
SW - NNW
>= 10000Nicht signifikant 
DORTMUND/WICKEDE
DE 122
Do 19.05. 09:50231457 %1019
1019
1004
WSW 2 (5)
SW - WNW
>= 10000Nicht signifikant 
DORTMUND/WICKEDE
DE 122
Do 19.05. 09:20231561 %1019
1019
1004
W 2 (6)
SSW - NNW
>= 10000Nicht signifikant 
DORTMUND/WICKEDE
DE 122
Do 19.05. 08:50221460 %1018
1018
1003
SW 3 (7)
S - W
>= 10000Nicht signifikant 
DORTMUND/WICKEDE
DE 122
Do 19.05. 08:20211256 %1018
1018
1003
SSO 2 (6)>= 10000Nicht signifikant 
DORTMUND/WICKEDE
DE 122
Do 19.05. 07:50221253 %1018
1018
1003
SO 3 (7)>= 10000Nicht signifikant 
DORTMUND/WICKEDE
DE 122
Do 19.05. 07:20211256 %1018
1018
1003
SSO 3 (9)>= 10000Nicht signifikant 
DORTMUND/WICKEDE
DE 122
Do 19.05. 06:50201260 %1018
1018
1003
SSO 3 (8)>= 10000Nicht signifikant 
DORTMUND/WICKEDE
DE 122
Do 19.05. 06:20201260 %1018
1018
1003
S 3 (8)>= 10000Nicht signifikant 
DORTMUND/WICKEDE
DE 122
Do 19.05. 05:50201260 %1018
1018
1003
S 3 (9)>= 10000Nicht signifikant 
DORTMUND/WICKEDE
DE 122
Do 19.05. 05:20201260 %1018
1018
1003
SSO 3 (7)
OSO - S
>= 10000Nicht signifikant 
DORTMUND/WICKEDE
DE 122
Do 19.05. 04:50211256 %1018
1018
1003
SSO 3 (8)>= 10000  
DORTMUND/WICKEDE
DE 122
Do 19.05. 04:20211256 %1018
1018
1003
SSO 3 (7)>= 10000  
DORTMUND/WICKEDE
DE 122
Do 19.05. 03:50211256 %1018
1018
1003
SSO 3 (8)>= 10000  
DORTMUND/WICKEDE
DE 122
Do 19.05. 03:20211256 %1018
1018
1003
SSO 3 (8)>= 10000  
DORTMUND/WICKEDE
DE 122
Do 19.05. 02:50211256 %1018
1018
1003
SSO 3 (8)>= 10000  
DORTMUND/WICKEDE
DE 122
Do 19.05. 02:20211256 %1018
1018
1003
SSO 2 (6)>= 10000  
DORTMUND/WICKEDE
DE 122
Do 19.05. 01:50201364 %1019
1019
1004
SO 2 (4)>= 10000  
DORTMUND/WICKEDE
DE 122
Do 19.05. 01:20201364 %1019
1019
1004
Windstill>= 10000  
DORTMUND/WICKEDE
DE 122
Do 19.05. 00:50211360 %1019
1019
1004
Uml 1 (2)>= 10000  
DORTMUND/WICKEDE
DE 122
Do 19.05. 00:20211360 %1019
1019
1004
SSO 2 (3)>= 10000  
DORTMUND/WICKEDE
DE 122
Mi 18.05. 23:50211360 %1019
1019
1004
SO 2 (5)>= 10000  
DORTMUND/WICKEDE
DE 122
Mi 18.05. 23:20221253 %1019
1019
1004
SO 2 (4)>= 10000  
DORTMUND/WICKEDE
DE 122
Mi 18.05. 22:50221253 %1019
1019
1004
SO 2 (4)>= 10000Nicht signifikant 
DORTMUND/WICKEDE
DE 122
Mi 18.05. 22:20231250 %1019
1019
1004
SO 2 (4)>= 10000Nicht signifikant 
DORTMUND/WICKEDE
DE 122
Mi 18.05. 21:50231353 %1019
1019
1004
SSO 2 (5)>= 10000Nicht signifikant 
DORTMUND/WICKEDE
DE 122
Mi 18.05. 21:20241350 %1019
1019
1004
SSO 2 (5)>= 10000Nicht signifikant 
DORTMUND/WICKEDE
DE 122
Mi 18.05. 20:50251347 %1019
1019
1004
SO 2 (3)>= 10000Nicht signifikant 
DORTMUND/WICKEDE
DE 122
Mi 18.05. 20:20241557 %1019
1019
1004
S 2 (4)
OSO - SSW
>= 10000Nicht signifikant 
DORTMUND/WICKEDE
DE 122
Mi 18.05. 19:50251554 %1019
1019
1004
SSW 2 (5)>= 10000Nicht signifikant 
DORTMUND/WICKEDE
DE 122
Mi 18.05. 19:20271445 %1019
1018
1004
SSW 2 (5)
S - WSW
>= 10000Nicht signifikant 
DORTMUND/WICKEDE
DE 122
Mi 18.05. 18:50281442 %1019
1018
1004
SW 2 (5)
S - WSW
>= 10000Nicht signifikant 
DORTMUND/WICKEDE
DE 122
Mi 18.05. 18:20281237 %1019
1018
1004
SSW 2 (6)>= 10000Nicht signifikant 
DORTMUND/WICKEDE
DE 122
Mi 18.05. 17:50281545 %1020
1019
1005
WSW 2 (6)
SSW - W
>= 10000Nicht signifikant 
DORTMUND/WICKEDE
DE 122
Mi 18.05. 17:20261448 %1020
1019
1005
SW 3 (8)>= 10000Nicht signifikant 
DORTMUND/WICKEDE
DE 122
Mi 18.05. 16:50271445 %1020
1019
1005
WSW 2 (6)>= 10000Nicht signifikant 
DORTMUND/WICKEDE
DE 122
Mi 18.05. 16:20281442 %1020
1019
1005
Uml 2 (3)>= 10000Nicht signifikant 
DORTMUND/WICKEDE
DE 122
Mi 18.05. 15:50281442 %1020
1019
1005
SW 2 (6)
S - WNW
>= 10000Nicht signifikant 
DORTMUND/WICKEDE
DE 122
Mi 18.05. 15:20281442 %1020
1019
1005
Uml 3 (7)>= 10000Nicht signifikant 
DORTMUND/WICKEDE
DE 122
Mi 18.05. 14:50281545 %1020
1019
1005
SSO 3 (7)
O - SW
>= 10000Nicht signifikant 
DORTMUND/WICKEDE
DE 122
Mi 18.05. 14:20281442 %1020
1019
1005
S 2 (6)
OSO - WSW
>= 10000Nicht signifikant 

Altimeter: Einstellung am Altimeter (Höhenmesser), die Höhe 0 muss auf diesen Luftdruckwert zeigen, damit das Gerät die Stationshöhe richtig anzeigt.

NN: Luftdruck reduziert auf "Normal Null", auf Meereshöhe, dieser von der Temperatur abhängige Wert wird bisweilen unkorrekt einfach als "Luftdruck" bezeichnet. Eigentlich nur eine fiktive Größe, die es erlaubt, Stationen auf unterschiedlichen Höhen miteinander zu vergleichen.

Station: Realer Luftdruck an der Station.